sensor_id;sensor_type;location;lat;lon;timestamp;P1;durP1;ratioP1;P2;durP2;ratioP2
55134;SDS011;41031;44.750;11.308;2024-01-30T00:01:02;114.60;;;26.43;;
55134;SDS011;41031;44.750;11.308;2024-01-30T00:03:30;102.83;;;23.03;;
55134;SDS011;41031;44.750;11.308;2024-01-30T00:05:57;85.77;;;23.73;;
55134;SDS011;41031;44.750;11.308;2024-01-30T00:08:25;93.37;;;25.00;;
55134;SDS011;41031;44.750;11.308;2024-01-30T00:10:53;97.50;;;23.83;;
55134;SDS011;41031;44.750;11.308;2024-01-30T00:13:20;78.13;;;21.93;;
55134;SDS011;41031;44.750;11.308;2024-01-30T00:15:47;102.53;;;24.37;;
55134;SDS011;41031;44.750;11.308;2024-01-30T00:18:14;136.10;;;24.00;;
55134;SDS011;41031;44.750;11.308;2024-01-30T00:20:42;81.27;;;23.60;;
55134;SDS011;41031;44.750;11.308;2024-01-30T00:23:09;177.63;;;26.60;;
55134;SDS011;41031;44.750;11.308;2024-01-30T00:25:36;91.17;;;23.43;;
55134;SDS011;41031;44.750;11.308;2024-01-30T00:28:03;169.77;;;28.27;;
55134;SDS011;41031;44.750;11.308;2024-01-30T00:30:30;85.03;;;23.80;;
55134;SDS011;41031;44.750;11.308;2024-01-30T00:32:57;96.63;;;23.50;;
55134;SDS011;41031;44.750;11.308;2024-01-30T00:35:25;125.27;;;24.90;;
55134;SDS011;41031;44.750;11.308;2024-01-30T00:37:52;113.37;;;24.23;;
55134;SDS011;41031;44.750;11.308;2024-01-30T00:40:19;183.67;;;25.77;;
55134;SDS011;41031;44.750;11.308;2024-01-30T00:42:47;89.50;;;25.60;;
55134;SDS011;41031;44.750;11.308;2024-01-30T00:45:14;118.63;;;23.83;;
55134;SDS011;41031;44.750;11.308;2024-01-30T00:47:42;86.37;;;25.83;;
55134;SDS011;41031;44.750;11.308;2024-01-30T00:50:10;70.47;;;24.53;;
55134;SDS011;41031;44.750;11.308;2024-01-30T00:52:38;135.83;;;25.53;;
55134;SDS011;41031;44.750;11.308;2024-01-30T00:55:06;326.67;;;30.73;;
55134;SDS011;41031;44.750;11.308;2024-01-30T00:57:33;123.23;;;27.13;;
55134;SDS011;41031;44.750;11.308;2024-01-30T01:00:00;140.17;;;25.90;;
55134;SDS011;41031;44.750;11.308;2024-01-30T01:02:27;150.80;;;26.37;;
55134;SDS011;41031;44.750;11.308;2024-01-30T01:04:55;129.23;;;25.33;;
55134;SDS011;41031;44.750;11.308;2024-01-30T01:07:22;104.40;;;27.13;;
55134;SDS011;41031;44.750;11.308;2024-01-30T01:09:49;120.90;;;24.27;;
55134;SDS011;41031;44.750;11.308;2024-01-30T01:12:16;96.63;;;26.27;;
55134;SDS011;41031;44.750;11.308;2024-01-30T01:14:43;95.33;;;28.73;;
55134;SDS011;41031;44.750;11.308;2024-01-30T01:17:10;120.97;;;26.73;;
55134;SDS011;41031;44.750;11.308;2024-01-30T01:19:37;152.40;;;28.87;;
55134;SDS011;41031;44.750;11.308;2024-01-30T01:22:04;205.87;;;28.50;;
55134;SDS011;41031;44.750;11.308;2024-01-30T01:24:31;109.53;;;25.97;;
55134;SDS011;41031;44.750;11.308;2024-01-30T01:26:58;117.07;;;25.63;;
55134;SDS011;41031;44.750;11.308;2024-01-30T01:29:26;136.03;;;30.77;;
55134;SDS011;41031;44.750;11.308;2024-01-30T01:31:55;110.10;;;24.37;;
55134;SDS011;41031;44.750;11.308;2024-01-30T01:34:23;77.33;;;24.23;;
55134;SDS011;41031;44.750;11.308;2024-01-30T01:36:55;88.17;;;27.13;;
55134;SDS011;41031;44.750;11.308;2024-01-30T01:39:23;76.63;;;27.50;;
55134;SDS011;41031;44.750;11.308;2024-01-30T01:41:50;65.13;;;27.40;;
55134;SDS011;41031;44.750;11.308;2024-01-30T01:44:18;160.80;;;27.17;;
55134;SDS011;41031;44.750;11.308;2024-01-30T01:46:45;177.83;;;28.77;;
55134;SDS011;41031;44.750;11.308;2024-01-30T01:49:13;100.53;;;28.40;;
55134;SDS011;41031;44.750;11.308;2024-01-30T01:51:41;195.10;;;30.17;;
55134;SDS011;41031;44.750;11.308;2024-01-30T01:54:11;85.83;;;27.00;;
55134;SDS011;41031;44.750;11.308;2024-01-30T01:56:38;67.27;;;26.20;;
55134;SDS011;41031;44.750;11.308;2024-01-30T01:59:06;86.27;;;26.80;;
55134;SDS011;41031;44.750;11.308;2024-01-30T02:01:37;61.07;;;29.07;;
55134;SDS011;41031;44.750;11.308;2024-01-30T02:04:05;84.33;;;26.83;;
55134;SDS011;41031;44.750;11.308;2024-01-30T02:06:36;103.10;;;28.50;;
55134;SDS011;41031;44.750;11.308;2024-01-30T02:09:04;92.50;;;27.13;;
55134;SDS011;41031;44.750;11.308;2024-01-30T02:11:32;111.40;;;28.70;;
55134;SDS011;41031;44.750;11.308;2024-01-30T02:14:02;77.17;;;25.27;;
55134;SDS011;41031;44.750;11.308;2024-01-30T02:16:33;121.87;;;25.90;;
55134;SDS011;41031;44.750;11.308;2024-01-30T02:19:00;103.70;;;27.80;;
55134;SDS011;41031;44.750;11.308;2024-01-30T02:21:28;87.53;;;26.57;;
55134;SDS011;41031;44.750;11.308;2024-01-30T02:23:55;78.93;;;29.30;;
55134;SDS011;41031;44.750;11.308;2024-01-30T02:26:26;85.70;;;26.07;;
55134;SDS011;41031;44.750;11.308;2024-01-30T02:28:53;84.97;;;26.53;;
55134;SDS011;41031;44.750;11.308;2024-01-30T02:31:20;83.33;;;26.87;;
55134;SDS011;41031;44.750;11.308;2024-01-30T02:33:47;102.47;;;26.03;;
55134;SDS011;41031;44.750;11.308;2024-01-30T02:36:14;83.33;;;25.87;;
55134;SDS011;41031;44.750;11.308;2024-01-30T02:38:42;152.60;;;30.60;;
55134;SDS011;41031;44.750;11.308;2024-01-30T02:41:09;88.80;;;26.83;;
55134;SDS011;41031;44.750;11.308;2024-01-30T02:43:36;97.33;;;25.13;;
55134;SDS011;41031;44.750;11.308;2024-01-30T02:46:03;96.07;;;24.90;;
55134;SDS011;41031;44.750;11.308;2024-01-30T02:48:30;70.53;;;23.93;;
55134;SDS011;41031;44.750;11.308;2024-01-30T02:50:57;83.57;;;25.20;;
55134;SDS011;41031;44.750;11.308;2024-01-30T02:53:24;72.50;;;22.87;;
55134;SDS011;41031;44.750;11.308;2024-01-30T02:55:51;86.53;;;26.43;;
55134;SDS011;41031;44.750;11.308;2024-01-30T02:58:18;61.20;;;24.90;;
55134;SDS011;41031;44.750;11.308;2024-01-30T03:00:45;72.57;;;25.60;;
55134;SDS011;41031;44.750;11.308;2024-01-30T03:03:13;60.27;;;24.60;;
55134;SDS011;41031;44.750;11.308;2024-01-30T03:05:40;116.03;;;26.67;;
55134;SDS011;41031;44.750;11.308;2024-01-30T03:08:07;70.50;;;25.43;;
55134;SDS011;41031;44.750;11.308;2024-01-30T03:10:34;76.37;;;24.03;;
55134;SDS011;41031;44.750;11.308;2024-01-30T03:13:01;114.73;;;25.53;;
55134;SDS011;41031;44.750;11.308;2024-01-30T03:15:28;110.67;;;25.37;;
55134;SDS011;41031;44.750;11.308;2024-01-30T03:17:55;98.67;;;26.20;;
55134;SDS011;41031;44.750;11.308;2024-01-30T03:20:22;94.53;;;23.10;;
55134;SDS011;41031;44.750;11.308;2024-01-30T03:22:50;85.20;;;24.40;;
55134;SDS011;41031;44.750;11.308;2024-01-30T03:25:17;91.23;;;29.20;;
55134;SDS011;41031;44.750;11.308;2024-01-30T03:27:44;112.77;;;24.80;;
55134;SDS011;41031;44.750;11.308;2024-01-30T03:30:11;92.53;;;24.47;;
55134;SDS011;41031;44.750;11.308;2024-01-30T03:32:39;73.67;;;23.30;;
55134;SDS011;41031;44.750;11.308;2024-01-30T03:35:06;88.63;;;25.07;;
55134;SDS011;41031;44.750;11.308;2024-01-30T03:37:33;68.80;;;25.23;;
55134;SDS011;41031;44.750;11.308;2024-01-30T03:40:02;85.50;;;27.13;;
55134;SDS011;41031;44.750;11.308;2024-01-30T03:42:30;71.23;;;23.63;;
55134;SDS011;41031;44.750;11.308;2024-01-30T03:44:57;89.17;;;26.27;;
55134;SDS011;41031;44.750;11.308;2024-01-30T03:47:24;70.20;;;25.10;;
55134;SDS011;41031;44.750;11.308;2024-01-30T03:49:51;81.70;;;25.47;;
55134;SDS011;41031;44.750;11.308;2024-01-30T03:52:18;125.33;;;27.53;;
55134;SDS011;41031;44.750;11.308;2024-01-30T03:54:45;80.60;;;27.10;;
55134;SDS011;41031;44.750;11.308;2024-01-30T03:57:13;84.30;;;27.93;;
55134;SDS011;41031;44.750;11.308;2024-01-30T03:59:41;142.73;;;26.07;;
55134;SDS011;41031;44.750;11.308;2024-01-30T04:02:09;90.23;;;25.17;;
55134;SDS011;41031;44.750;11.308;2024-01-30T04:04:38;64.10;;;24.83;;
55134;SDS011;41031;44.750;11.308;2024-01-30T04:07:05;92.13;;;25.77;;
55134;SDS011;41031;44.750;11.308;2024-01-30T04:09:32;115.77;;;28.10;;
55134;SDS011;41031;44.750;11.308;2024-01-30T04:12:00;99.40;;;27.40;;
55134;SDS011;41031;44.750;11.308;2024-01-30T04:14:29;99.40;;;25.13;;
55134;SDS011;41031;44.750;11.308;2024-01-30T04:16:56;127.80;;;26.13;;
55134;SDS011;41031;44.750;11.308;2024-01-30T04:19:23;108.10;;;26.60;;
55134;SDS011;41031;44.750;11.308;2024-01-30T04:21:51;80.13;;;24.77;;
55134;SDS011;41031;44.750;11.308;2024-01-30T04:24:18;83.40;;;26.87;;
55134;SDS011;41031;44.750;11.308;2024-01-30T04:26:45;114.73;;;27.77;;
55134;SDS011;41031;44.750;11.308;2024-01-30T04:29:12;95.83;;;24.70;;
55134;SDS011;41031;44.750;11.308;2024-01-30T04:31:39;132.10;;;27.00;;
55134;SDS011;41031;44.750;11.308;2024-01-30T04:34:06;128.10;;;25.17;;
55134;SDS011;41031;44.750;11.308;2024-01-30T04:36:33;117.67;;;25.97;;
55134;SDS011;41031;44.750;11.308;2024-01-30T04:39:00;123.50;;;27.47;;
55134;SDS011;41031;44.750;11.308;2024-01-30T04:41:27;111.90;;;27.57;;
55134;SDS011;41031;44.750;11.308;2024-01-30T04:43:58;142.97;;;27.83;;
55134;SDS011;41031;44.750;11.308;2024-01-30T04:46:25;100.50;;;28.90;;
55134;SDS011;41031;44.750;11.308;2024-01-30T04:48:52;109.40;;;25.83;;
55134;SDS011;41031;44.750;11.308;2024-01-30T04:51:19;90.37;;;26.67;;
55134;SDS011;41031;44.750;11.308;2024-01-30T04:53:46;126.03;;;26.60;;
55134;SDS011;41031;44.750;11.308;2024-01-30T04:56:13;144.53;;;30.00;;
55134;SDS011;41031;44.750;11.308;2024-01-30T04:58:40;126.33;;;28.80;;
55134;SDS011;41031;44.750;11.308;2024-01-30T05:01:07;86.07;;;28.07;;
55134;SDS011;41031;44.750;11.308;2024-01-30T05:03:34;127.63;;;29.13;;
55134;SDS011;41031;44.750;11.308;2024-01-30T05:06:02;100.93;;;29.07;;
55134;SDS011;41031;44.750;11.308;2024-01-30T05:08:29;112.73;;;29.13;;
55134;SDS011;41031;44.750;11.308;2024-01-30T05:10:56;89.57;;;26.50;;
55134;SDS011;41031;44.750;11.308;2024-01-30T05:13:26;105.90;;;26.83;;
55134;SDS011;41031;44.750;11.308;2024-01-30T05:15:53;111.10;;;29.43;;
55134;SDS011;41031;44.750;11.308;2024-01-30T05:18:20;106.60;;;28.77;;
55134;SDS011;41031;44.750;11.308;2024-01-30T05:20:47;110.10;;;25.93;;
55134;SDS011;41031;44.750;11.308;2024-01-30T05:23:14;119.67;;;29.07;;
55134;SDS011;41031;44.750;11.308;2024-01-30T05:25:41;150.80;;;29.47;;
55134;SDS011;41031;44.750;11.308;2024-01-30T05:28:08;70.10;;;26.60;;
55134;SDS011;41031;44.750;11.308;2024-01-30T05:30:35;59.90;;;25.67;;
55134;SDS011;41031;44.750;11.308;2024-01-30T05:33:02;80.97;;;25.07;;
55134;SDS011;41031;44.750;11.308;2024-01-30T05:35:30;99.90;;;25.57;;
55134;SDS011;41031;44.750;11.308;2024-01-30T05:37:57;93.27;;;25.27;;
55134;SDS011;41031;44.750;11.308;2024-01-30T05:40:24;125.83;;;25.13;;
55134;SDS011;41031;44.750;11.308;2024-01-30T05:42:52;121.97;;;25.77;;
55134;SDS011;41031;44.750;11.308;2024-01-30T05:45:19;105.83;;;26.40;;
55134;SDS011;41031;44.750;11.308;2024-01-30T05:47:46;72.43;;;26.53;;
55134;SDS011;41031;44.750;11.308;2024-01-30T05:50:13;86.60;;;27.03;;
55134;SDS011;41031;44.750;11.308;2024-01-30T05:52:40;81.70;;;24.63;;
55134;SDS011;41031;44.750;11.308;2024-01-30T05:55:07;84.20;;;26.57;;
55134;SDS011;41031;44.750;11.308;2024-01-30T05:57:36;121.60;;;26.73;;
55134;SDS011;41031;44.750;11.308;2024-01-30T06:00:06;72.90;;;25.67;;
55134;SDS011;41031;44.750;11.308;2024-01-30T06:02:35;108.03;;;25.20;;
55134;SDS011;41031;44.750;11.308;2024-01-30T06:05:02;83.40;;;24.33;;
55134;SDS011;41031;44.750;11.308;2024-01-30T06:07:29;69.23;;;24.23;;
55134;SDS011;41031;44.750;11.308;2024-01-30T06:10:02;63.63;;;23.00;;
55134;SDS011;41031;44.750;11.308;2024-01-30T06:12:30;88.87;;;24.27;;
55134;SDS011;41031;44.750;11.308;2024-01-30T06:14:57;84.60;;;25.23;;
55134;SDS011;41031;44.750;11.308;2024-01-30T06:17:24;73.90;;;23.73;;
55134;SDS011;41031;44.750;11.308;2024-01-30T06:19:51;79.73;;;25.00;;
55134;SDS011;41031;44.750;11.308;2024-01-30T06:22:18;91.17;;;24.50;;
55134;SDS011;41031;44.750;11.308;2024-01-30T06:24:46;88.47;;;24.97;;
55134;SDS011;41031;44.750;11.308;2024-01-30T06:27:16;56.77;;;23.27;;
55134;SDS011;41031;44.750;11.308;2024-01-30T06:29:44;73.30;;;25.20;;
55134;SDS011;41031;44.750;11.308;2024-01-30T06:32:11;63.53;;;24.33;;
55134;SDS011;41031;44.750;11.308;2024-01-30T06:34:38;62.90;;;25.17;;
55134;SDS011;41031;44.750;11.308;2024-01-30T06:37:06;58.43;;;23.33;;
55134;SDS011;41031;44.750;11.308;2024-01-30T06:39:33;70.90;;;22.63;;
55134;SDS011;41031;44.750;11.308;2024-01-30T06:42:01;59.70;;;23.40;;
55134;SDS011;41031;44.750;11.308;2024-01-30T06:44:28;51.97;;;22.23;;
55134;SDS011;41031;44.750;11.308;2024-01-30T06:46:58;47.93;;;23.93;;
55134;SDS011;41031;44.750;11.308;2024-01-30T06:49:25;54.27;;;22.50;;
55134;SDS011;41031;44.750;11.308;2024-01-30T06:51:53;44.97;;;22.33;;
55134;SDS011;41031;44.750;11.308;2024-01-30T06:54:20;62.30;;;23.27;;
55134;SDS011;41031;44.750;11.308;2024-01-30T06:56:47;69.13;;;23.47;;
55134;SDS011;41031;44.750;11.308;2024-01-30T06:59:14;67.47;;;23.00;;
55134;SDS011;41031;44.750;11.308;2024-01-30T07:01:41;83.03;;;24.20;;
55134;SDS011;41031;44.750;11.308;2024-01-30T07:04:08;56.03;;;21.43;;
55134;SDS011;41031;44.750;11.308;2024-01-30T07:06:35;77.40;;;23.53;;
55134;SDS011;41031;44.750;11.308;2024-01-30T07:09:02;44.50;;;21.13;;
55134;SDS011;41031;44.750;11.308;2024-01-30T07:11:29;80.50;;;24.77;;
55134;SDS011;41031;44.750;11.308;2024-01-30T07:13:57;54.10;;;23.53;;
55134;SDS011;41031;44.750;11.308;2024-01-30T07:16:24;46.50;;;21.87;;
55134;SDS011;41031;44.750;11.308;2024-01-30T07:18:51;41.33;;;20.93;;
55134;SDS011;41031;44.750;11.308;2024-01-30T07:21:19;55.43;;;23.80;;
55134;SDS011;41031;44.750;11.308;2024-01-30T07:23:48;63.07;;;23.53;;
55134;SDS011;41031;44.750;11.308;2024-01-30T07:26:15;78.63;;;22.83;;
55134;SDS011;41031;44.750;11.308;2024-01-30T07:28:43;44.93;;;21.77;;
55134;SDS011;41031;44.750;11.308;2024-01-30T07:31:10;74.90;;;22.07;;
55134;SDS011;41031;44.750;11.308;2024-01-30T07:33:37;58.43;;;24.00;;
55134;SDS011;41031;44.750;11.308;2024-01-30T07:36:04;57.87;;;19.60;;
55134;SDS011;41031;44.750;11.308;2024-01-30T07:38:32;46.00;;;21.03;;
55134;SDS011;41031;44.750;11.308;2024-01-30T07:40:59;47.80;;;20.00;;
55134;SDS011;41031;44.750;11.308;2024-01-30T07:43:26;60.03;;;21.10;;
55134;SDS011;41031;44.750;11.308;2024-01-30T07:45:53;70.90;;;22.67;;
55134;SDS011;41031;44.750;11.308;2024-01-30T07:48:20;57.43;;;21.23;;
55134;SDS011;41031;44.750;11.308;2024-01-30T07:50:47;53.17;;;21.27;;
55134;SDS011;41031;44.750;11.308;2024-01-30T07:53:15;118.37;;;22.90;;
55134;SDS011;41031;44.750;11.308;2024-01-30T07:55:41;59.77;;;22.83;;
55134;SDS011;41031;44.750;11.308;2024-01-30T07:58:13;47.03;;;21.50;;
55134;SDS011;41031;44.750;11.308;2024-01-30T08:00:40;55.73;;;21.30;;
55134;SDS011;41031;44.750;11.308;2024-01-30T08:03:08;65.47;;;21.47;;
55134;SDS011;41031;44.750;11.308;2024-01-30T08:05:35;55.37;;;19.97;;
55134;SDS011;41031;44.750;11.308;2024-01-30T08:08:02;54.03;;;22.13;;
55134;SDS011;41031;44.750;11.308;2024-01-30T08:10:29;42.93;;;21.70;;
55134;SDS011;41031;44.750;11.308;2024-01-30T08:12:56;46.50;;;22.17;;
55134;SDS011;41031;44.750;11.308;2024-01-30T08:15:23;62.40;;;21.93;;
55134;SDS011;41031;44.750;11.308;2024-01-30T08:17:50;56.33;;;22.60;;
55134;SDS011;41031;44.750;11.308;2024-01-30T08:20:22;42.17;;;21.77;;
55134;SDS011;41031;44.750;11.308;2024-01-30T08:22:49;74.07;;;22.50;;
55134;SDS011;41031;44.750;11.308;2024-01-30T08:25:16;45.10;;;21.97;;
55134;SDS011;41031;44.750;11.308;2024-01-30T08:27:43;44.80;;;23.83;;
55134;SDS011;41031;44.750;11.308;2024-01-30T08:30:11;53.20;;;23.03;;
55134;SDS011;41031;44.750;11.308;2024-01-30T08:32:39;37.17;;;21.37;;
55134;SDS011;41031;44.750;11.308;2024-01-30T08:35:06;35.43;;;22.20;;
55134;SDS011;41031;44.750;11.308;2024-01-30T08:37:33;44.07;;;22.87;;
55134;SDS011;41031;44.750;11.308;2024-01-30T08:40:01;37.93;;;21.27;;
55134;SDS011;41031;44.750;11.308;2024-01-30T08:42:31;34.07;;;21.00;;
55134;SDS011;41031;44.750;11.308;2024-01-30T08:44:59;43.53;;;22.90;;
55134;SDS011;41031;44.750;11.308;2024-01-30T08:47:26;34.80;;;22.77;;
55134;SDS011;41031;44.750;11.308;2024-01-30T08:49:54;37.23;;;22.97;;
55134;SDS011;41031;44.750;11.308;2024-01-30T08:52:21;47.73;;;25.10;;
55134;SDS011;41031;44.750;11.308;2024-01-30T08:54:48;45.77;;;22.60;;
55134;SDS011;41031;44.750;11.308;2024-01-30T08:57:15;36.03;;;22.17;;
55134;SDS011;41031;44.750;11.308;2024-01-30T08:59:42;39.43;;;22.43;;
55134;SDS011;41031;44.750;11.308;2024-01-30T09:02:13;35.17;;;23.63;;
55134;SDS011;41031;44.750;11.308;2024-01-30T09:04:42;34.00;;;21.17;;
55134;SDS011;41031;44.750;11.308;2024-01-30T09:07:10;31.20;;;21.00;;
55134;SDS011;41031;44.750;11.308;2024-01-30T09:09:38;33.00;;;21.20;;
55134;SDS011;41031;44.750;11.308;2024-01-30T09:12:07;36.87;;;22.80;;
55134;SDS011;41031;44.750;11.308;2024-01-30T09:14:36;39.10;;;22.27;;
55134;SDS011;41031;44.750;11.308;2024-01-30T09:17:04;41.37;;;22.80;;
55134;SDS011;41031;44.750;11.308;2024-01-30T09:19:31;36.57;;;21.33;;
55134;SDS011;41031;44.750;11.308;2024-01-30T09:21:59;41.17;;;22.33;;
55134;SDS011;41031;44.750;11.308;2024-01-30T09:24:26;35.93;;;22.67;;
55134;SDS011;41031;44.750;11.308;2024-01-30T09:26:54;40.33;;;23.93;;
55134;SDS011;41031;44.750;11.308;2024-01-30T09:29:21;37.17;;;23.07;;
55134;SDS011;41031;44.750;11.308;2024-01-30T09:31:48;40.47;;;24.57;;
55134;SDS011;41031;44.750;11.308;2024-01-30T09:34:15;37.83;;;23.60;;
55134;SDS011;41031;44.750;11.308;2024-01-30T09:36:42;38.87;;;23.57;;
55134;SDS011;41031;44.750;11.308;2024-01-30T09:39:09;38.53;;;23.83;;
55134;SDS011;41031;44.750;11.308;2024-01-30T09:44:31;41.67;;;24.33;;
55134;SDS011;41031;44.750;11.308;2024-01-30T09:47:03;39.07;;;24.30;;
55134;SDS011;41031;44.750;11.308;2024-01-30T09:49:32;39.63;;;26.10;;
55134;SDS011;41031;44.750;11.308;2024-01-30T09:52:01;35.33;;;22.83;;
55134;SDS011;41031;44.750;11.308;2024-01-30T09:54:32;38.50;;;24.13;;
55134;SDS011;41031;44.750;11.308;2024-01-30T09:57:02;35.27;;;21.87;;
55134;SDS011;41031;44.750;11.308;2024-01-30T09:59:30;42.00;;;24.40;;
55134;SDS011;41031;44.750;11.308;2024-01-30T10:01:58;41.53;;;25.10;;
55134;SDS011;41031;44.750;11.308;2024-01-30T10:04:25;36.87;;;23.90;;
55134;SDS011;41031;44.750;11.308;2024-01-30T10:06:53;41.27;;;26.70;;
55134;SDS011;41031;44.750;11.308;2024-01-30T10:09:20;39.67;;;24.37;;
55134;SDS011;41031;44.750;11.308;2024-01-30T10:11:48;40.10;;;25.43;;
55134;SDS011;41031;44.750;11.308;2024-01-30T10:14:17;43.33;;;25.33;;
55134;SDS011;41031;44.750;11.308;2024-01-30T10:16:45;37.47;;;24.30;;
55134;SDS011;41031;44.750;11.308;2024-01-30T10:19:13;44.17;;;26.40;;
55134;SDS011;41031;44.750;11.308;2024-01-30T10:21:40;46.13;;;25.40;;
55134;SDS011;41031;44.750;11.308;2024-01-30T10:24:07;48.50;;;28.97;;
55134;SDS011;41031;44.750;11.308;2024-01-30T10:26:34;47.07;;;28.43;;
55134;SDS011;41031;44.750;11.308;2024-01-30T10:29:04;55.87;;;32.87;;
55134;SDS011;41031;44.750;11.308;2024-01-30T10:31:31;49.87;;;29.30;;
55134;SDS011;41031;44.750;11.308;2024-01-30T10:33:59;45.77;;;27.17;;
55134;SDS011;41031;44.750;11.308;2024-01-30T10:36:41;51.10;;;31.30;;
55134;SDS011;41031;44.750;11.308;2024-01-30T10:39:13;47.27;;;28.93;;
55134;SDS011;41031;44.750;11.308;2024-01-30T10:41:44;42.77;;;27.23;;
55134;SDS011;41031;44.750;11.308;2024-01-30T10:44:16;47.80;;;30.33;;
55134;SDS011;41031;44.750;11.308;2024-01-30T10:46:47;46.40;;;28.53;;
55134;SDS011;41031;44.750;11.308;2024-01-30T10:49:23;43.77;;;27.87;;
55134;SDS011;41031;44.750;11.308;2024-01-30T10:51:51;51.57;;;27.93;;
55134;SDS011;41031;44.750;11.308;2024-01-30T10:54:20;48.10;;;28.70;;
55134;SDS011;41031;44.750;11.308;2024-01-30T10:56:48;46.80;;;28.67;;
55134;SDS011;41031;44.750;11.308;2024-01-30T10:59:16;55.30;;;27.57;;
55134;SDS011;41031;44.750;11.308;2024-01-30T11:01:44;47.90;;;28.40;;
55134;SDS011;41031;44.750;11.308;2024-01-30T11:04:12;48.97;;;30.07;;
55134;SDS011;41031;44.750;11.308;2024-01-30T11:06:42;49.43;;;29.20;;
55134;SDS011;41031;44.750;11.308;2024-01-30T11:09:11;48.67;;;28.50;;
55134;SDS011;41031;44.750;11.308;2024-01-30T11:11:52;54.63;;;28.63;;
55134;SDS011;41031;44.750;11.308;2024-01-30T11:14:27;47.77;;;27.23;;
55134;SDS011;41031;44.750;11.308;2024-01-30T11:16:59;53.80;;;28.57;;
55134;SDS011;41031;44.750;11.308;2024-01-30T11:19:27;44.03;;;27.30;;
55134;SDS011;41031;44.750;11.308;2024-01-30T11:21:57;56.87;;;27.50;;
55134;SDS011;41031;44.750;11.308;2024-01-30T11:24:24;51.70;;;28.03;;
55134;SDS011;41031;44.750;11.308;2024-01-30T11:26:56;48.83;;;28.50;;
55134;SDS011;41031;44.750;11.308;2024-01-30T11:29:27;47.57;;;28.13;;
55134;SDS011;41031;44.750;11.308;2024-01-30T11:31:55;62.07;;;28.30;;
55134;SDS011;41031;44.750;11.308;2024-01-30T11:34:24;46.43;;;28.00;;
55134;SDS011;41031;44.750;11.308;2024-01-30T11:36:52;40.93;;;25.40;;
55134;SDS011;41031;44.750;11.308;2024-01-30T11:39:26;50.10;;;29.17;;
55134;SDS011;41031;44.750;11.308;2024-01-30T11:41:54;50.20;;;27.10;;
55134;SDS011;41031;44.750;11.308;2024-01-30T11:44:22;59.63;;;27.97;;
55134;SDS011;41031;44.750;11.308;2024-01-30T11:46:50;59.47;;;26.90;;
55134;SDS011;41031;44.750;11.308;2024-01-30T11:49:18;53.57;;;29.03;;
55134;SDS011;41031;44.750;11.308;2024-01-30T11:51:46;66.60;;;29.13;;
55134;SDS011;41031;44.750;11.308;2024-01-30T11:54:15;44.80;;;28.90;;
55134;SDS011;41031;44.750;11.308;2024-01-30T11:56:43;48.73;;;30.90;;
55134;SDS011;41031;44.750;11.308;2024-01-30T11:59:10;56.17;;;34.07;;
55134;SDS011;41031;44.750;11.308;2024-01-30T12:01:37;56.03;;;33.27;;
55134;SDS011;41031;44.750;11.308;2024-01-30T12:04:04;54.53;;;33.50;;
55134;SDS011;41031;44.750;11.308;2024-01-30T12:06:37;52.87;;;33.53;;
55134;SDS011;41031;44.750;11.308;2024-01-30T12:09:05;48.90;;;32.40;;
55134;SDS011;41031;44.750;11.308;2024-01-30T12:11:47;53.60;;;32.23;;
55134;SDS011;41031;44.750;11.308;2024-01-30T12:14:16;56.67;;;31.33;;
55134;SDS011;41031;44.750;11.308;2024-01-30T12:16:47;51.93;;;31.73;;
55134;SDS011;41031;44.750;11.308;2024-01-30T12:19:22;56.33;;;32.83;;
55134;SDS011;41031;44.750;11.308;2024-01-30T12:21:56;56.50;;;32.80;;
55134;SDS011;41031;44.750;11.308;2024-01-30T12:24:28;53.37;;;32.27;;
55134;SDS011;41031;44.750;11.308;2024-01-30T12:26:59;56.03;;;32.83;;
55134;SDS011;41031;44.750;11.308;2024-01-30T12:29:27;51.87;;;32.43;;
55134;SDS011;41031;44.750;11.308;2024-01-30T12:32:00;48.60;;;31.40;;
55134;SDS011;41031;44.750;11.308;2024-01-30T12:34:27;53.83;;;33.97;;
55134;SDS011;41031;44.750;11.308;2024-01-30T12:36:55;50.03;;;32.70;;
55134;SDS011;41031;44.750;11.308;2024-01-30T12:39:22;49.57;;;33.03;;
55134;SDS011;41031;44.750;11.308;2024-01-30T12:41:49;47.83;;;32.27;;
55134;SDS011;41031;44.750;11.308;2024-01-30T12:44:18;50.97;;;29.93;;
55134;SDS011;41031;44.750;11.308;2024-01-30T12:46:45;46.87;;;31.10;;
55134;SDS011;41031;44.750;11.308;2024-01-30T12:49:14;50.67;;;31.47;;
55134;SDS011;41031;44.750;11.308;2024-01-30T12:51:42;50.73;;;30.87;;
55134;SDS011;41031;44.750;11.308;2024-01-30T12:54:09;45.73;;;32.07;;
55134;SDS011;41031;44.750;11.308;2024-01-30T12:56:39;48.33;;;32.10;;
55134;SDS011;41031;44.750;11.308;2024-01-30T12:59:06;52.03;;;32.13;;
55134;SDS011;41031;44.750;11.308;2024-01-30T13:01:33;50.80;;;33.73;;
55134;SDS011;41031;44.750;11.308;2024-01-30T13:04:00;55.03;;;36.00;;
55134;SDS011;41031;44.750;11.308;2024-01-30T13:06:27;54.80;;;35.00;;
55134;SDS011;41031;44.750;11.308;2024-01-30T13:08:54;54.73;;;34.33;;
55134;SDS011;41031;44.750;11.308;2024-01-30T13:11:21;56.60;;;35.63;;
55134;SDS011;41031;44.750;11.308;2024-01-30T13:13:48;48.80;;;32.70;;
55134;SDS011;41031;44.750;11.308;2024-01-30T13:16:15;59.37;;;36.83;;
55134;SDS011;41031;44.750;11.308;2024-01-30T13:18:43;55.57;;;35.03;;
55134;SDS011;41031;44.750;11.308;2024-01-30T13:21:11;54.27;;;34.07;;
55134;SDS011;41031;44.750;11.308;2024-01-30T13:23:38;48.80;;;32.90;;
55134;SDS011;41031;44.750;11.308;2024-01-30T13:26:05;53.37;;;33.17;;
55134;SDS011;41031;44.750;11.308;2024-01-30T13:28:33;56.17;;;34.80;;
55134;SDS011;41031;44.750;11.308;2024-01-30T13:31:00;48.83;;;32.70;;
55134;SDS011;41031;44.750;11.308;2024-01-30T13:33:27;55.00;;;34.67;;
55134;SDS011;41031;44.750;11.308;2024-01-30T13:35:54;51.83;;;34.37;;
55134;SDS011;41031;44.750;11.308;2024-01-30T13:38:21;53.73;;;36.00;;
55134;SDS011;41031;44.750;11.308;2024-01-30T13:40:48;55.20;;;33.10;;
55134;SDS011;41031;44.750;11.308;2024-01-30T13:43:16;52.67;;;34.27;;
55134;SDS011;41031;44.750;11.308;2024-01-30T13:45:44;53.17;;;33.93;;
55134;SDS011;41031;44.750;11.308;2024-01-30T13:48:12;55.83;;;35.00;;
55134;SDS011;41031;44.750;11.308;2024-01-30T13:50:39;52.43;;;34.50;;
55134;SDS011;41031;44.750;11.308;2024-01-30T13:53:06;48.77;;;31.67;;
55134;SDS011;41031;44.750;11.308;2024-01-30T13:55:34;47.10;;;30.50;;
55134;SDS011;41031;44.750;11.308;2024-01-30T13:58:01;43.30;;;30.87;;
55134;SDS011;41031;44.750;11.308;2024-01-30T14:00:29;46.07;;;30.43;;
55134;SDS011;41031;44.750;11.308;2024-01-30T14:02:56;45.07;;;31.03;;
55134;SDS011;41031;44.750;11.308;2024-01-30T14:05:25;43.73;;;29.60;;
55134;SDS011;41031;44.750;11.308;2024-01-30T14:07:56;46.00;;;30.23;;
55134;SDS011;41031;44.750;11.308;2024-01-30T14:10:24;47.07;;;31.97;;
55134;SDS011;41031;44.750;11.308;2024-01-30T14:12:52;42.80;;;29.43;;